sensor_id;sensor_type;location;lat;lon;timestamp;pressure;altitude;pressure_sealevel;temperature;humidity
80682;BME280;70045;40.200;44.582;2023-11-19T00:02:11;85934.44;;;11.83;40.77
80682;BME280;70045;40.200;44.582;2023-11-19T00:04:37;85928.56;;;11.70;40.90
80682;BME280;70045;40.200;44.582;2023-11-19T00:07:03;85950.03;;;11.83;40.85
80682;BME280;70045;40.200;44.582;2023-11-19T00:09:28;85935.59;;;11.95;40.71
80682;BME280;70045;40.200;44.582;2023-11-19T00:11:58;85935.91;;;11.97;40.79
80682;BME280;70045;40.200;44.582;2023-11-19T00:14:24;85911.28;;;11.76;40.74
80682;BME280;70045;40.200;44.582;2023-11-19T00:16:50;85925.09;;;11.73;41.02
80682;BME280;70045;40.200;44.582;2023-11-19T00:19:15;85940.59;;;11.64;40.97
80682;BME280;70045;40.200;44.582;2023-11-19T00:21:40;85941.72;;;11.63;41.12
80682;BME280;70045;40.200;44.582;2023-11-19T00:24:09;85945.78;;;11.64;40.79
80682;BME280;70045;40.200;44.582;2023-11-19T00:26:35;85941.72;;;11.63;40.76
80682;BME280;70045;40.200;44.582;2023-11-19T00:29:00;85934.78;;;11.60;41.19
80682;BME280;70045;40.200;44.582;2023-11-19T00:31:25;85942.06;;;11.65;41.14
80682;BME280;70045;40.200;44.582;2023-11-19T00:33:51;85940.59;;;11.64;40.96
80682;BME280;70045;40.200;44.582;2023-11-19T00:36:19;85953.78;;;11.69;41.14
80682;BME280;70045;40.200;44.582;2023-11-19T00:38:44;85947.78;;;11.60;41.31
80682;BME280;70045;40.200;44.582;2023-11-19T00:41:10;85949.50;;;11.63;41.15
80682;BME280;70045;40.200;44.582;2023-11-19T00:43:35;85952.34;;;11.68;41.52
80682;BME280;70045;40.200;44.582;2023-11-19T00:46:01;85947.75;;;11.73;41.05
80682;BME280;70045;40.200;44.582;2023-11-19T00:48:29;85943.06;;;11.80;41.48
80682;BME280;70045;40.200;44.582;2023-11-19T00:50:55;85943.63;;;11.75;41.01
80682;BME280;70045;40.200;44.582;2023-11-19T00:53:20;85947.66;;;11.76;41.50
80682;BME280;70045;40.200;44.582;2023-11-19T00:55:45;85941.00;;;11.75;41.64
80682;BME280;70045;40.200;44.582;2023-11-19T00:58:11;85943.28;;;11.73;41.66
80682;BME280;70045;40.200;44.582;2023-11-19T01:00:40;85942.06;;;11.65;41.44
80682;BME280;70045;40.200;44.582;2023-11-19T01:03:05;85948.38;;;11.64;41.17
80682;BME280;70045;40.200;44.582;2023-11-19T01:05:30;85932.50;;;11.62;41.33
80682;BME280;70045;40.200;44.582;2023-11-19T01:07:56;85929.78;;;11.53;41.39
80682;BME280;70045;40.200;44.582;2023-11-19T01:10:21;85922.84;;;11.37;42.13
80682;BME280;70045;40.200;44.582;2023-11-19T01:12:50;85920.56;;;11.26;42.38
80682;BME280;70045;40.200;44.582;2023-11-19T01:15:15;85925.63;;;11.17;42.84
80682;BME280;70045;40.200;44.582;2023-11-19T01:17:40;85925.09;;;11.09;43.10
80682;BME280;70045;40.200;44.582;2023-11-19T01:20:06;85929.88;;;11.10;42.72
80682;BME280;70045;40.200;44.582;2023-11-19T01:22:32;85917.09;;;11.03;42.93
80682;BME280;70045;40.200;44.582;2023-11-19T01:25:01;85925.50;;;11.07;43.66
80682;BME280;70045;40.200;44.582;2023-11-19T01:27:27;85918.78;;;10.97;43.91
80682;BME280;70045;40.200;44.582;2023-11-19T01:29:52;85912.63;;;10.91;43.74
80682;BME280;70045;40.200;44.582;2023-11-19T01:32:17;85882.94;;;10.79;43.73
80682;BME280;70045;40.200;44.582;2023-11-19T01:34:43;85907.75;;;10.93;43.35
80682;BME280;70045;40.200;44.582;2023-11-19T01:37:13;85907.34;;;10.82;44.32
80682;BME280;70045;40.200;44.582;2023-11-19T01:39:38;85893.91;;;10.70;45.69
80682;BME280;70045;40.200;44.582;2023-11-19T01:42:04;85905.84;;;10.68;44.42
80682;BME280;70045;40.200;44.582;2023-11-19T01:44:29;85909.72;;;10.89;43.55
80682;BME280;70045;40.200;44.582;2023-11-19T01:46:55;85902.91;;;11.08;43.38
80682;BME280;70045;40.200;44.582;2023-11-19T01:49:23;85899.91;;;11.22;43.42
80682;BME280;70045;40.200;44.582;2023-11-19T01:51:49;85900.09;;;11.28;43.42
80682;BME280;70045;40.200;44.582;2023-11-19T01:54:15;85893.56;;;11.36;43.55
80682;BME280;70045;40.200;44.582;2023-11-19T01:56:40;85911.72;;;11.36;43.01
80682;BME280;70045;40.200;44.582;2023-11-19T01:59:07;85909.97;;;11.20;43.89
80682;BME280;70045;40.200;44.582;2023-11-19T02:01:37;85902.38;;;11.00;43.80
80682;BME280;70045;40.200;44.582;2023-11-19T02:04:03;85899.03;;;10.87;44.16
80682;BME280;70045;40.200;44.582;2023-11-19T02:06:29;85907.34;;;10.82;44.85
80682;BME280;70045;40.200;44.582;2023-11-19T02:08:57;85915.16;;;10.65;45.26
80682;BME280;70045;40.200;44.582;2023-11-19T02:11:22;85915.16;;;10.65;44.19
80682;BME280;70045;40.200;44.582;2023-11-19T02:13:51;85911.38;;;10.83;43.82
80682;BME280;70045;40.200;44.582;2023-11-19T02:16:16;85920.19;;;10.85;43.89
80682;BME280;70045;40.200;44.582;2023-11-19T02:18:41;85920.41;;;10.91;43.83
80682;BME280;70045;40.200;44.582;2023-11-19T02:21:07;85913.25;;;10.82;44.17
80682;BME280;70045;40.200;44.582;2023-11-19T02:23:32;85904.59;;;10.72;44.81
80682;BME280;70045;40.200;44.582;2023-11-19T02:26:16;85903.78;;;10.76;44.20
80682;BME280;70045;40.200;44.582;2023-11-19T02:28:43;85921.34;;;10.84;44.44
80682;BME280;70045;40.200;44.582;2023-11-19T02:31:10;85909.72;;;11.02;44.11
80682;BME280;70045;40.200;44.582;2023-11-19T02:33:36;85908.09;;;11.08;43.95
80682;BME280;70045;40.200;44.582;2023-11-19T02:36:06;85901.84;;;11.05;44.16
80682;BME280;70045;40.200;44.582;2023-11-19T02:38:32;85891.38;;;11.09;43.72
80682;BME280;70045;40.200;44.582;2023-11-19T02:40:57;85876.22;;;11.07;43.65
80682;BME280;70045;40.200;44.582;2023-11-19T02:43:23;85883.69;;;11.31;43.12
80682;BME280;70045;40.200;44.582;2023-11-19T02:45:48;85883.50;;;11.38;43.55
80682;BME280;70045;40.200;44.582;2023-11-19T02:48:17;85871.34;;;11.48;43.40
80682;BME280;70045;40.200;44.582;2023-11-19T02:50:42;85871.34;;;11.48;43.58
80682;BME280;70045;40.200;44.582;2023-11-19T02:53:07;85869.78;;;11.50;43.15
80682;BME280;70045;40.200;44.582;2023-11-19T02:55:33;85869.47;;;11.48;43.28
80682;BME280;70045;40.200;44.582;2023-11-19T02:57:58;85866.56;;;11.46;43.11
80682;BME280;70045;40.200;44.582;2023-11-19T03:00:27;85853.28;;;11.44;43.86
80682;BME280;70045;40.200;44.582;2023-11-19T03:02:52;85853.25;;;11.57;43.55
80682;BME280;70045;40.200;44.582;2023-11-19T03:05:18;85848.06;;;11.70;43.50
80682;BME280;70045;40.200;44.582;2023-11-19T03:07:43;85848.53;;;11.91;43.13
80682;BME280;70045;40.200;44.582;2023-11-19T03:10:10;85856.13;;;11.98;43.17
80682;BME280;70045;40.200;44.582;2023-11-19T03:12:39;85845.16;;;12.03;43.07
80682;BME280;70045;40.200;44.582;2023-11-19T03:15:05;85856.25;;;12.16;43.06
80682;BME280;70045;40.200;44.582;2023-11-19T03:17:31;85850.34;;;12.16;42.76
80682;BME280;70045;40.200;44.582;2023-11-19T03:19:56;85838.41;;;12.05;43.39
80682;BME280;70045;40.200;44.582;2023-11-19T03:22:21;85845.50;;;12.05;43.38
80682;BME280;70045;40.200;44.582;2023-11-19T03:24:51;85850.28;;;12.07;43.40
80682;BME280;70045;40.200;44.582;2023-11-19T03:27:16;85838.22;;;12.00;43.91
80682;BME280;70045;40.200;44.582;2023-11-19T03:29:41;85839.38;;;11.99;43.82
80682;BME280;70045;40.200;44.582;2023-11-19T03:32:07;85845.16;;;12.03;43.49
80682;BME280;70045;40.200;44.582;2023-11-19T03:34:32;85845.78;;;12.07;43.55
80682;BME280;70045;40.200;44.582;2023-11-19T03:37:00;85809.13;;;12.05;43.56
80682;BME280;70045;40.200;44.582;2023-11-19T03:39:26;85822.94;;;12.02;43.72
80682;BME280;70045;40.200;44.582;2023-11-19T03:41:51;85832.88;;;12.16;43.65
80682;BME280;70045;40.200;44.582;2023-11-19T03:44:16;85838.78;;;12.17;43.37
80682;BME280;70045;40.200;44.582;2023-11-19T03:46:42;85831.44;;;12.15;43.56
80682;BME280;70045;40.200;44.582;2023-11-19T03:49:11;85843.88;;;12.20;43.43
80682;BME280;70045;40.200;44.582;2023-11-19T03:51:36;85842.66;;;12.12;43.77
80682;BME280;70045;40.200;44.582;2023-11-19T03:54:02;85853.34;;;12.14;43.64
80682;BME280;70045;40.200;44.582;2023-11-19T03:56:27;85842.53;;;12.16;43.65
80682;BME280;70045;40.200;44.582;2023-11-19T03:58:53;85838.97;;;12.22;43.37
80682;BME280;70045;40.200;44.582;2023-11-19T04:01:22;85837.81;;;12.23;43.42
80682;BME280;70045;40.200;44.582;2023-11-19T04:03:47;85837.91;;;12.33;43.33
80682;BME280;70045;40.200;44.582;2023-11-19T04:06:13;85842.56;;;12.38;43.08
80682;BME280;70045;40.200;44.582;2023-11-19T04:08:38;85832.16;;;12.38;43.04
80682;BME280;70045;40.200;44.582;2023-11-19T04:11:04;85829.72;;;12.43;43.12
80682;BME280;70045;40.200;44.582;2023-11-19T04:13:32;85817.75;;;12.46;43.26
80682;BME280;70045;40.200;44.582;2023-11-19T04:15:58;85822.69;;;12.53;42.79
80682;BME280;70045;40.200;44.582;2023-11-19T04:18:23;85811.75;;;12.58;42.43
80682;BME280;70045;40.200;44.582;2023-11-19T04:20:48;85835.78;;;12.62;42.95
80682;BME280;70045;40.200;44.582;2023-11-19T04:23:14;85828.09;;;12.59;43.23
80682;BME280;70045;40.200;44.582;2023-11-19T04:25:42;85819.31;;;12.66;42.60
80682;BME280;70045;40.200;44.582;2023-11-19T04:28:07;85816.47;;;12.73;42.79
80682;BME280;70045;40.200;44.582;2023-11-19T04:30:33;85805.38;;;12.81;42.47
80682;BME280;70045;40.200;44.582;2023-11-19T04:32:58;85811.47;;;12.88;42.23
80682;BME280;70045;40.200;44.582;2023-11-19T04:35:24;85810.78;;;12.96;42.13
80682;BME280;70045;40.200;44.582;2023-11-19T04:37:54;85815.84;;;13.00;41.83
80682;BME280;70045;40.200;44.582;2023-11-19T04:40:20;85818.31;;;13.04;42.18
80682;BME280;70045;40.200;44.582;2023-11-19T04:42:45;85814.28;;;13.03;41.66
80682;BME280;70045;40.200;44.582;2023-11-19T04:45:11;85820.38;;;13.09;42.03
80682;BME280;70045;40.200;44.582;2023-11-19T04:47:36;85813.16;;;13.13;41.44
80682;BME280;70045;40.200;44.582;2023-11-19T04:50:05;85820.84;;;13.16;41.47
80682;BME280;70045;40.200;44.582;2023-11-19T04:52:31;85807.41;;;13.18;41.65
80682;BME280;70045;40.200;44.582;2023-11-19T04:54:56;85821.38;;;13.43;41.01
80682;BME280;70045;40.200;44.582;2023-11-19T04:57:21;85811.66;;;13.34;41.34
80682;BME280;70045;40.200;44.582;2023-11-19T04:59:47;85823.13;;;13.46;41.02
80682;BME280;70045;40.200;44.582;2023-11-19T05:02:19;85827.16;;;13.37;40.88
80682;BME280;70045;40.200;44.582;2023-11-19T05:04:45;85820.72;;;13.29;41.29
80682;BME280;70045;40.200;44.582;2023-11-19T05:07:10;85818.06;;;13.42;41.18
80682;BME280;70045;40.200;44.582;2023-11-19T05:09:35;85824.97;;;13.36;40.60
80682;BME280;70045;40.200;44.582;2023-11-19T05:12:01;85817.66;;;13.53;40.55
80682;BME280;70045;40.200;44.582;2023-11-19T05:14:29;85823.44;;;13.57;40.76
80682;BME280;70045;40.200;44.582;2023-11-19T05:16:55;85829.69;;;13.60;40.98
80682;BME280;70045;40.200;44.582;2023-11-19T05:19:20;85839.19;;;13.53;40.96
80682;BME280;70045;40.200;44.582;2023-11-19T05:21:45;85835.47;;;13.64;40.86
80682;BME280;70045;40.200;44.582;2023-11-19T05:24:11;85848.38;;;13.77;40.88
80682;BME280;70045;40.200;44.582;2023-11-19T05:26:40;85850.13;;;13.80;40.53
80682;BME280;70045;40.200;44.582;2023-11-19T05:29:05;85850.53;;;13.78;41.00
80682;BME280;70045;40.200;44.582;2023-11-19T05:31:31;85848.38;;;13.77;40.82
80682;BME280;70045;40.200;44.582;2023-11-19T05:33:56;85855.03;;;13.78;41.11
80682;BME280;70045;40.200;44.582;2023-11-19T05:36:22;85851.44;;;13.75;41.10
80682;BME280;70045;40.200;44.582;2023-11-19T05:38:50;85856.78;;;13.81;40.91
80682;BME280;70045;40.200;44.582;2023-11-19T05:41:15;85854.47;;;13.73;41.14
80682;BME280;70045;40.200;44.582;2023-11-19T05:43:41;85853.72;;;13.73;41.02
80682;BME280;70045;40.200;44.582;2023-11-19T05:46:07;85843.75;;;13.71;41.63
80682;BME280;70045;40.200;44.582;2023-11-19T05:48:32;85840.53;;;13.58;41.92
80682;BME280;70045;40.200;44.582;2023-11-19T05:51:01;85841.09;;;13.53;42.31
80682;BME280;70045;40.200;44.582;2023-11-19T05:53:26;85828.22;;;13.49;42.24
80682;BME280;70045;40.200;44.582;2023-11-19T05:55:51;85819.97;;;13.51;42.13
80682;BME280;70045;40.200;44.582;2023-11-19T05:58:17;85829.06;;;13.46;42.31
80682;BME280;70045;40.200;44.582;2023-11-19T06:00:42;85829.50;;;13.45;42.70
80682;BME280;70045;40.200;44.582;2023-11-19T06:03:13;85839.06;;;13.57;42.77
80682;BME280;70045;40.200;44.582;2023-11-19T06:05:38;85830.41;;;13.60;42.61
80682;BME280;70045;40.200;44.582;2023-11-19T06:08:04;85818.22;;;13.57;42.13
80682;BME280;70045;40.200;44.582;2023-11-19T06:10:29;85824.47;;;13.69;42.51
80682;BME280;70045;40.200;44.582;2023-11-19T06:12:54;85805.38;;;13.63;42.40
80682;BME280;70045;40.200;44.582;2023-11-19T06:15:26;85811.75;;;13.71;42.14
80682;BME280;70045;40.200;44.582;2023-11-19T06:17:51;85800.03;;;13.66;42.19
80682;BME280;70045;40.200;44.582;2023-11-19T06:20:17;85797.56;;;13.90;41.94
80682;BME280;70045;40.200;44.582;2023-11-19T06:22:42;85803.84;;;14.11;41.61
80682;BME280;70045;40.200;44.582;2023-11-19T06:25:08;85809.03;;;14.21;40.99
80682;BME280;70045;40.200;44.582;2023-11-19T06:27:36;85805.00;;;14.29;40.19
80682;BME280;70045;40.200;44.582;2023-11-19T06:30:02;85780.94;;;14.34;40.44
80682;BME280;70045;40.200;44.582;2023-11-19T06:32:28;85784.81;;;14.39;40.63
80682;BME280;70045;40.200;44.582;2023-11-19T06:34:53;85779.19;;;14.49;39.68
80682;BME280;70045;40.200;44.582;2023-11-19T06:37:18;85768.75;;;14.49;39.68
80682;BME280;70045;40.200;44.582;2023-11-19T06:39:48;85766.81;;;14.68;39.93
80682;BME280;70045;40.200;44.582;2023-11-19T06:42:14;85776.22;;;14.75;39.52
80682;BME280;70045;40.200;44.582;2023-11-19T06:44:39;85760.34;;;14.64;39.55
80682;BME280;70045;40.200;44.582;2023-11-19T06:47:05;85765.56;;;14.64;39.82
80682;BME280;70045;40.200;44.582;2023-11-19T06:49:30;85766.97;;;14.74;39.94
80682;BME280;70045;40.200;44.582;2023-11-19T06:52:00;85768.56;;;14.72;39.62
80682;BME280;70045;40.200;44.582;2023-11-19T06:54:26;85779.28;;;14.74;40.30
80682;BME280;70045;40.200;44.582;2023-11-19T06:56:51;85780.34;;;14.48;40.23
80682;BME280;70045;40.200;44.582;2023-11-19T06:59:16;85783.38;;;14.65;40.17
80682;BME280;70045;40.200;44.582;2023-11-19T07:01:42;85782.34;;;14.72;39.90
80682;BME280;70045;40.200;44.582;2023-11-19T07:04:11;85781.78;;;14.59;40.00
80682;BME280;70045;40.200;44.582;2023-11-19T07:06:37;85777.00;;;14.39;40.46
80682;BME280;70045;40.200;44.582;2023-11-19T07:09:03;85773.84;;;14.25;40.85
80682;BME280;70045;40.200;44.582;2023-11-19T07:11:28;85748.22;;;14.05;40.85
80682;BME280;70045;40.200;44.582;2023-11-19T07:13:53;85764.28;;;14.22;40.57
80682;BME280;70045;40.200;44.582;2023-11-19T07:16:22;85761.22;;;14.33;40.84
80682;BME280;70045;40.200;44.582;2023-11-19T07:18:48;85770.19;;;14.41;40.90
80682;BME280;70045;40.200;44.582;2023-11-19T07:21:14;85743.38;;;14.41;40.25
80682;BME280;70045;40.200;44.582;2023-11-19T07:23:39;85742.81;;;14.37;40.24
80682;BME280;70045;40.200;44.582;2023-11-19T07:26:05;85752.66;;;14.42;40.21
80682;BME280;70045;40.200;44.582;2023-11-19T07:28:34;85745.88;;;14.44;39.86
80682;BME280;70045;40.200;44.582;2023-11-19T07:30:59;85742.94;;;14.61;40.07
80682;BME280;70045;40.200;44.582;2023-11-19T07:33:25;85739.88;;;14.72;39.67
80682;BME280;70045;40.200;44.582;2023-11-19T07:35:50;85752.03;;;14.75;39.52
80682;BME280;70045;40.200;44.582;2023-11-19T07:38:15;85731.72;;;14.88;39.47
80682;BME280;70045;40.200;44.582;2023-11-19T07:40:44;85741.09;;;14.95;38.61
80682;BME280;70045;40.200;44.582;2023-11-19T07:43:09;85741.78;;;15.04;38.67
80682;BME280;70045;40.200;44.582;2023-11-19T07:45:35;85728.19;;;15.00;38.99
80682;BME280;70045;40.200;44.582;2023-11-19T07:48:00;85733.72;;;14.93;38.55
80682;BME280;70045;40.200;44.582;2023-11-19T07:50:25;85727.19;;;14.88;38.76
80682;BME280;70045;40.200;44.582;2023-11-19T07:52:54;85722.41;;;14.87;38.70
80682;BME280;70045;40.200;44.582;2023-11-19T07:55:19;85715.84;;;15.01;38.66
80682;BME280;70045;40.200;44.582;2023-11-19T07:57:44;85710.03;;;15.06;38.36
80682;BME280;70045;40.200;44.582;2023-11-19T08:00:10;85709.97;;;15.15;38.27
80682;BME280;70045;40.200;44.582;2023-11-19T08:02:36;85688.25;;;15.09;38.35
80682;BME280;70045;40.200;44.582;2023-11-19T08:05:05;85702.44;;;15.17;37.81
80682;BME280;70045;40.200;44.582;2023-11-19T08:07:30;85703.31;;;15.14;38.11
80682;BME280;70045;40.200;44.582;2023-11-19T08:09:55;85702.78;;;15.01;38.31
80682;BME280;70045;40.200;44.582;2023-11-19T08:12:21;85701.38;;;14.91;38.69
80682;BME280;70045;40.200;44.582;2023-11-19T08:14:46;85693.47;;;15.09;38.28
80682;BME280;70045;40.200;44.582;2023-11-19T08:17:14;85699.16;;;15.32;37.90
80682;BME280;70045;40.200;44.582;2023-11-19T08:19:40;85699.97;;;15.38;37.88
80682;BME280;70045;40.200;44.582;2023-11-19T08:22:05;85704.31;;;15.41;37.99
80682;BME280;70045;40.200;44.582;2023-11-19T08:24:31;85688.75;;;15.47;37.75
80682;BME280;70045;40.200;44.582;2023-11-19T08:26:56;85697.06;;;15.45;37.38
80682;BME280;70045;40.200;44.582;2023-11-19T08:29:24;85681.38;;;15.45;37.68
80682;BME280;70045;40.200;44.582;2023-11-19T08:31:50;85682.97;;;15.42;37.17
80682;BME280;70045;40.200;44.582;2023-11-19T08:34:15;85675.84;;;15.43;37.50
80682;BME280;70045;40.200;44.582;2023-11-19T08:36:40;85664.25;;;15.44;37.04
80682;BME280;70045;40.200;44.582;2023-11-19T08:39:06;85672.00;;;15.53;37.22
80682;BME280;70045;40.200;44.582;2023-11-19T08:41:34;85678.69;;;15.54;37.15
80682;BME280;70045;40.200;44.582;2023-11-19T08:43:59;85672.50;;;16.06;36.20
80682;BME280;70045;40.200;44.582;2023-11-19T08:46:28;85671.19;;;16.25;36.21
80682;BME280;70045;40.200;44.582;2023-11-19T08:48:54;85653.41;;;16.14;35.77
80682;BME280;70045;40.200;44.582;2023-11-19T08:51:19;85657.72;;;15.88;36.15
80682;BME280;70045;40.200;44.582;2023-11-19T08:53:48;85665.22;;;15.71;36.46
80682;BME280;70045;40.200;44.582;2023-11-19T08:56:13;85669.91;;;15.67;36.33
80682;BME280;70045;40.200;44.582;2023-11-19T08:58:38;85665.22;;;15.71;36.63
80682;BME280;70045;40.200;44.582;2023-11-19T09:01:04;85653.84;;;15.59;36.72
80682;BME280;70045;40.200;44.582;2023-11-19T09:03:31;85658.00;;;15.66;36.73
80682;BME280;70045;40.200;44.582;2023-11-19T09:06:00;85647.84;;;15.68;36.73
80682;BME280;70045;40.200;44.582;2023-11-19T09:08:25;85662.41;;;15.59;36.99
80682;BME280;70045;40.200;44.582;2023-11-19T09:10:51;85645.00;;;15.56;37.36
80682;BME280;70045;40.200;44.582;2023-11-19T09:13:16;85640.13;;;15.49;37.20
80682;BME280;70045;40.200;44.582;2023-11-19T09:15:42;85651.81;;;15.39;37.33
80682;BME280;70045;40.200;44.582;2023-11-19T09:18:10;85654.41;;;15.39;37.56
80682;BME280;70045;40.200;44.582;2023-11-19T09:20:35;85653.84;;;15.59;37.59
80682;BME280;70045;40.200;44.582;2023-11-19T09:23:01;85660.22;;;15.82;37.27
80682;BME280;70045;40.200;44.582;2023-11-19T09:25:26;85660.22;;;15.82;37.11
80682;BME280;70045;40.200;44.582;2023-11-19T09:27:51;85654.41;;;15.63;37.26
80682;BME280;70045;40.200;44.582;2023-11-19T09:30:25;85643.56;;;15.55;37.46
80682;BME280;70045;40.200;44.582;2023-11-19T09:32:51;85657.19;;;15.59;37.16
80682;BME280;70045;40.200;44.582;2023-11-19T09:35:16;85641.00;;;15.46;37.57
80682;BME280;70045;40.200;44.582;2023-11-19T09:37:43;85641.19;;;15.42;37.93
80682;BME280;70045;40.200;44.582;2023-11-19T09:40:08;85645.44;;;15.40;37.55
80682;BME280;70045;40.200;44.582;2023-11-19T09:42:45;85640.53;;;15.33;37.34
80682;BME280;70045;40.200;44.582;2023-11-19T09:45:15;85642.25;;;15.36;37.60
80682;BME280;70045;40.200;44.582;2023-11-19T09:47:42;85634.47;;;15.27;37.71
80682;BME280;70045;40.200;44.582;2023-11-19T09:50:08;85638.03;;;15.14;38.17
80682;BME280;70045;40.200;44.582;2023-11-19T09:52:34;85637.91;;;15.33;37.79
80682;BME280;70045;40.200;44.582;2023-11-19T09:55:07;85627.78;;;15.50;37.37
80682;BME280;70045;40.200;44.582;2023-11-19T09:57:34;85624.94;;;15.62;37.35
80682;BME280;70045;40.200;44.582;2023-11-19T10:00:01;85612.66;;;15.78;36.88
80682;BME280;70045;40.200;44.582;2023-11-19T10:02:27;85609.56;;;15.79;36.70
80682;BME280;70045;40.200;44.582;2023-11-19T10:04:56;85617.34;;;16.04;36.60
80682;BME280;70045;40.200;44.582;2023-11-19T10:07:25;85623.09;;;16.23;35.95
80682;BME280;70045;40.200;44.582;2023-11-19T10:09:51;85600.56;;;16.25;35.67
80682;BME280;70045;40.200;44.582;2023-11-19T10:12:16;85601.63;;;16.33;35.72
80682;BME280;70045;40.200;44.582;2023-11-19T10:14:43;85606.69;;;16.37;35.60
80682;BME280;70045;40.200;44.582;2023-11-19T10:17:08;85595.84;;;16.44;35.33
80682;BME280;70045;40.200;44.582;2023-11-19T10:19:40;85591.34;;;16.45;34.98
80682;BME280;70045;40.200;44.582;2023-11-19T10:22:05;85590.25;;;16.51;34.92
80682;BME280;70045;40.200;44.582;2023-11-19T10:24:32;85574.00;;;16.47;35.13
80682;BME280;70045;40.200;44.582;2023-11-19T10:26:57;85583.16;;;16.37;34.68
80682;BME280;70045;40.200;44.582;2023-11-19T10:29:23;85588.31;;;16.16;35.46
80682;BME280;70045;40.200;44.582;2023-11-19T10:31:58;85588.94;;;15.96;35.56
80682;BME280;70045;40.200;44.582;2023-11-19T10:34:25;85573.34;;;16.02;35.66
80682;BME280;70045;40.200;44.582;2023-11-19T10:36:51;85578.03;;;15.98;35.36
80682;BME280;70045;40.200;44.582;2023-11-19T10:39:16;85567.69;;;15.89;35.25
80682;BME280;70045;40.200;44.582;2023-11-19T10:41:41;85562.88;;;16.02;35.32
80682;BME280;70045;40.200;44.582;2023-11-19T10:44:11;85557.41;;;15.85;35.08
80682;BME280;70045;40.200;44.582;2023-11-19T10:46:45;85555.19;;;15.54;36.24
80682;BME280;70045;40.200;44.582;2023-11-19T10:49:10;85554.47;;;15.38;36.48
80682;BME280;70045;40.200;44.582;2023-11-19T10:51:36;85551.28;;;15.19;36.61
80682;BME280;70045;40.200;44.582;2023-11-19T10:54:05;85554.50;;;15.14;36.60
80682;BME280;70045;40.200;44.582;2023-11-19T10:56:34;85552.59;;;15.00;37.12
80682;BME280;70045;40.200;44.582;2023-11-19T10:59:01;85547.41;;;14.91;37.01
80682;BME280;70045;40.200;44.582;2023-11-19T11:01:32;85554.91;;;14.74;37.53
80682;BME280;70045;40.200;44.582;2023-11-19T11:03:59;85557.25;;;14.72;37.71
80682;BME280;70045;40.200;44.582;2023-11-19T11:06:26;85543.13;;;14.78;37.50
80682;BME280;70045;40.200;44.582;2023-11-19T11:08:55;85550.50;;;14.56;37.45
80682;BME280;70045;40.200;44.582;2023-11-19T11:11:21;85551.31;;;14.71;37.31
80682;BME280;70045;40.200;44.582;2023-11-19T11:13:47;85560.25;;;14.79;37.33
80682;BME280;70045;40.200;44.582;2023-11-19T11:16:15;85548.97;;;14.73;36.63
80682;BME280;70045;40.200;44.582;2023-11-19T11:18:44;85557.31;;;14.86;36.76
80682;BME280;70045;40.200;44.582;2023-11-19T11:21:16;85572.06;;;14.90;37.55
80682;BME280;70045;40.200;44.582;2023-11-19T11:26:35;85564.84;;;15.09;36.86
80682;BME280;70045;40.200;44.582;2023-11-19T11:29:20;85561.38;;;15.27;36.59
80682;BME280;70045;40.200;44.582;2023-11-19T11:32:08;85541.31;;;15.48;35.77
80682;BME280;70045;40.200;44.582;2023-11-19T11:39:35;85557.06;;;15.53;35.83
80682;BME280;70045;40.200;44.582;2023-11-19T11:45:09;85568.78;;;15.43;35.71
80682;BME280;70045;40.200;44.582;2023-11-19T11:50:20;85566.81;;;15.53;35.72
80682;BME280;70045;40.200;44.582;2023-11-19T11:58:12;85553.31;;;15.54;35.74
80682;BME280;70045;40.200;44.582;2023-11-19T12:00:40;85556.44;;;15.58;35.74
80682;BME280;70045;40.200;44.582;2023-11-19T12:03:10;85547.00;;;15.61;35.88
80682;BME280;70045;40.200;44.582;2023-11-19T12:05:43;85558.16;;;15.61;35.41
80682;BME280;70045;40.200;44.582;2023-11-19T12:08:11;85551.50;;;15.46;35.74
80682;BME280;70045;40.200;44.582;2023-11-19T12:10:46;85554.91;;;15.37;35.93
80682;BME280;70045;40.200;44.582;2023-11-19T12:13:16;85560.09;;;15.22;36.03
80682;BME280;70045;40.200;44.582;2023-11-19T12:18:19;85550.84;;;14.97;36.43
80682;BME280;70045;40.200;44.582;2023-11-19T12:20:45;85543.47;;;14.95;36.47
80682;BME280;70045;40.200;44.582;2023-11-19T12:23:10;85553.19;;;14.95;36.74
80682;BME280;70045;40.200;44.582;2023-11-19T12:25:39;85555.19;;;15.00;36.33
80682;BME280;70045;40.200;44.582;2023-11-19T12:28:04;85559.13;;;14.95;36.72
80682;BME280;70045;40.200;44.582;2023-11-19T12:30:30;85567.59;;;15.05;36.48
80682;BME280;70045;40.200;44.582;2023-11-19T12:32:55;85553.91;;;14.95;36.34
80682;BME280;70045;40.200;44.582;2023-11-19T12:35:20;85561.91;;;14.92;36.39
80682;BME280;70045;40.200;44.582;2023-11-19T12:37:50;85560.13;;;14.98;36.45
80682;BME280;70045;40.200;44.582;2023-11-19T12:40:20;85555.84;;;14.85;36.64
80682;BME280;70045;40.200;44.582;2023-11-19T12:42:50;85553.50;;;14.87;36.68
80682;BME280;70045;40.200;44.582;2023-11-19T12:45:16;85533.53;;;14.84;36.46
80682;BME280;70045;40.200;44.582;2023-11-19T12:47:43;85540.53;;;14.78;36.72
80682;BME280;70045;40.200;44.582;2023-11-19T12:50:12;85523.38;;;14.62;36.87
80682;BME280;70045;40.200;44.582;2023-11-19T12:52:38;85539.47;;;14.61;37.21
80682;BME280;70045;40.200;44.582;2023-11-19T12:55:24;85539.31;;;14.64;37.15
80682;BME280;70045;40.200;44.582;2023-11-19T12:57:50;85539.91;;;14.59;37.42
80682;BME280;70045;40.200;44.582;2023-11-19T13:00:20;85526.72;;;14.63;37.00
80682;BME280;70045;40.200;44.582;2023-11-19T13:02:49;85538.53;;;14.73;37.10
80682;BME280;70045;40.200;44.582;2023-11-19T13:05:32;85526.28;;;14.64;37.24
80682;BME280;70045;40.200;44.582;2023-11-19T13:08:04;85517.63;;;14.49;37.17
80682;BME280;70045;40.200;44.582;2023-11-19T13:10:49;85510.09;;;14.51;37.56